createdAt,value
2022-08-30T00:02:20.829Z,4.87
2022-08-30T00:04:48.371Z,4.93
2022-08-30T00:07:15.609Z,4.70
2022-08-30T00:09:42.855Z,5.20
2022-08-30T00:12:10.061Z,4.90
2022-08-30T00:14:37.841Z,4.47
2022-08-30T00:17:05.103Z,4.77
2022-08-30T00:19:31.921Z,4.97
2022-08-30T00:21:58.930Z,4.70
2022-08-30T00:24:26.100Z,4.43
2022-08-30T00:26:53.527Z,4.60
2022-08-30T00:40:09.771Z,4.67
2022-08-30T00:42:36.530Z,4.80
2022-08-30T00:45:13.857Z,4.57
2022-08-30T00:47:40.625Z,4.50
2022-08-30T00:50:08.446Z,5.67
2022-08-30T00:52:36.611Z,4.80
2022-08-30T00:55:03.702Z,4.77
2022-08-30T00:57:31.306Z,4.50
2022-08-30T00:59:59.021Z,4.33
2022-08-30T01:02:28.350Z,4.43
2022-08-30T01:04:55.541Z,4.33
2022-08-30T01:07:22.268Z,4.67
2022-08-30T01:09:49.188Z,5.57
2022-08-30T01:12:15.972Z,4.60
2022-08-30T01:14:44.660Z,4.30
2022-08-30T01:17:11.650Z,4.67
2022-08-30T01:19:49.797Z,4.20
2022-08-30T01:22:39.939Z,4.63
2022-08-30T01:25:08.872Z,3.97
2022-08-30T01:27:39.433Z,4.57
2022-08-30T01:30:07.017Z,5.00
2022-08-30T01:32:39.707Z,4.47
2022-08-30T01:35:07.429Z,4.63
2022-08-30T01:37:35.526Z,4.73
2022-08-30T01:40:02.539Z,5.23
2022-08-30T01:42:29.412Z,4.83
2022-08-30T01:44:56.191Z,4.47
2022-08-30T01:47:22.970Z,4.43
2022-08-30T01:49:49.874Z,5.03
2022-08-30T01:52:17.372Z,4.90
2022-08-30T01:54:45.820Z,5.43
2022-08-30T01:57:17.626Z,4.37
2022-08-30T01:59:47.556Z,4.67
2022-08-30T02:02:23.516Z,4.57
2022-08-30T02:04:51.745Z,4.37
2022-08-30T02:07:18.412Z,5.30
2022-08-30T02:09:46.102Z,4.83
2022-08-30T02:12:13.443Z,4.20
2022-08-30T02:14:40.190Z,4.80
2022-08-30T02:17:11.764Z,4.30
2022-08-30T02:19:38.940Z,4.70
2022-08-30T02:22:06.540Z,4.63
2022-08-30T02:24:33.428Z,4.90
2022-08-30T02:27:00.217Z,4.57
2022-08-30T02:29:26.965Z,4.50
2022-08-30T02:31:53.659Z,4.50
2022-08-30T02:34:20.528Z,4.67
2022-08-30T02:36:47.483Z,4.33
2022-08-30T02:39:15.196Z,4.87
2022-08-30T02:41:42.624Z,4.47
2022-08-30T02:44:10.734Z,5.13
2022-08-30T02:46:38.298Z,5.50
2022-08-30T02:51:52.464Z,4.70
2022-08-30T02:54:20.250Z,5.83
2022-08-30T02:56:48.017Z,4.40
2022-08-30T02:59:16.173Z,4.57
2022-08-30T03:01:43.491Z,4.60
2022-08-30T03:04:10.398Z,4.43
2022-08-30T03:06:37.195Z,4.53
2022-08-30T03:09:04.275Z,4.00
2022-08-30T03:11:31.564Z,4.50
2022-08-30T03:13:58.269Z,4.63
2022-08-30T03:16:24.986Z,4.47
2022-08-30T03:18:51.767Z,4.83
2022-08-30T03:21:18.528Z,4.03
2022-08-30T03:23:45.424Z,4.70
2022-08-30T03:26:14.742Z,4.80
2022-08-30T03:28:42.524Z,4.60
2022-08-30T03:31:09.593Z,4.53
2022-08-30T03:33:37.411Z,4.77
2022-08-30T03:36:04.306Z,4.47
2022-08-30T03:38:31.162Z,4.90
2022-08-30T03:40:57.876Z,4.53
2022-08-30T03:43:25.317Z,4.90
2022-08-30T03:45:52.495Z,4.50
2022-08-30T03:48:19.221Z,4.40
2022-08-30T03:50:45.921Z,4.20
2022-08-30T03:53:12.627Z,4.87
2022-08-30T03:55:39.318Z,5.07
2022-08-30T03:58:06.061Z,5.10
2022-08-30T04:00:32.828Z,5.50
2022-08-30T04:02:59.568Z,5.20
2022-08-30T04:05:27.508Z,4.77
2022-08-30T04:07:54.337Z,4.90
2022-08-30T04:10:21.740Z,4.80
2022-08-30T04:12:49.968Z,4.50
2022-08-30T04:15:17.804Z,4.83
2022-08-30T04:17:44.556Z,4.87
2022-08-30T04:20:11.417Z,4.57
2022-08-30T04:22:38.279Z,5.83
2022-08-30T04:25:05.924Z,4.77
2022-08-30T04:27:32.913Z,4.80
2022-08-30T04:30:00.151Z,4.97
2022-08-30T04:32:26.881Z,4.50
2022-08-30T04:34:57.597Z,4.80
2022-08-30T04:37:24.336Z,5.10
2022-08-30T04:39:54.902Z,5.37
2022-08-30T04:42:21.550Z,4.57
2022-08-30T04:44:48.245Z,5.63
2022-08-30T04:47:14.932Z,4.63
2022-08-30T04:49:41.594Z,5.00
2022-08-30T04:52:10.135Z,4.83
2022-08-30T04:54:36.805Z,4.70
2022-08-30T04:57:03.707Z,5.40
2022-08-30T04:59:30.381Z,5.37
2022-08-30T05:01:59.291Z,5.30
2022-08-30T05:04:26.171Z,4.77
2022-08-30T05:06:52.955Z,4.73
2022-08-30T05:09:21.465Z,5.00
2022-08-30T05:11:48.229Z,4.57
2022-08-30T05:14:15.112Z,4.30
2022-08-30T05:16:42.118Z,4.60
2022-08-30T05:19:09.018Z,4.63
2022-08-30T05:21:35.695Z,5.10
2022-08-30T05:24:02.681Z,4.90
2022-08-30T05:26:32.630Z,4.50
2022-08-30T05:29:00.399Z,4.53
2022-08-30T05:31:34.409Z,4.57
2022-08-30T05:34:01.631Z,5.17
2022-08-30T05:36:30.257Z,4.53
2022-08-30T05:38:57.277Z,4.90
2022-08-30T05:41:26.513Z,4.60
2022-08-30T05:43:54.843Z,4.60
2022-08-30T05:46:22.115Z,4.90
2022-08-30T05:48:49.789Z,5.00
2022-08-30T05:51:25.765Z,4.87
2022-08-30T05:53:53.821Z,4.70
2022-08-30T05:56:24.850Z,4.90
2022-08-30T05:58:53.479Z,4.63
2022-08-30T06:01:24.944Z,4.93
2022-08-30T06:03:52.378Z,4.87
2022-08-30T06:06:19.099Z,4.73
2022-08-30T06:08:47.364Z,4.97
2022-08-30T06:11:15.903Z,4.70
2022-08-30T06:13:43.370Z,4.97
2022-08-30T06:16:14.689Z,4.70
2022-08-30T06:18:41.416Z,4.90
2022-08-30T06:21:11.153Z,4.87
2022-08-30T06:23:41.317Z,5.03
2022-08-30T06:26:08.033Z,4.80
2022-08-30T06:28:35.649Z,5.00
2022-08-30T06:31:05.715Z,4.57
2022-08-30T06:33:32.499Z,5.37
2022-08-30T06:36:21.059Z,4.83
2022-08-30T06:38:50.465Z,4.60
2022-08-30T06:41:19.583Z,5.17
2022-08-30T06:43:49.014Z,5.80
2022-08-30T06:46:37.480Z,5.47
2022-08-30T06:49:05.708Z,4.97
2022-08-30T06:51:38.003Z,6.87
2022-08-30T06:54:09.738Z,8.53
2022-08-30T06:56:37.817Z,8.33
2022-08-30T06:59:05.183Z,7.50
2022-08-30T07:01:32.216Z,8.90
2022-08-30T07:03:59.293Z,6.27
2022-08-30T07:06:26.486Z,5.50
2022-08-30T07:08:56.212Z,5.40
2022-08-30T07:11:29.041Z,5.27
2022-08-30T07:13:55.950Z,6.07
2022-08-30T07:16:22.760Z,5.13
2022-08-30T07:18:54.929Z,5.77
2022-08-30T07:21:31.936Z,6.93
2022-08-30T07:23:59.255Z,7.70
2022-08-30T07:26:38.093Z,6.03
2022-08-30T07:29:05.170Z,5.80
2022-08-30T07:31:33.011Z,6.23
2022-08-30T07:33:59.783Z,5.80
2022-08-30T07:36:26.471Z,6.93
2022-08-30T07:38:54.473Z,5.80
2022-08-30T07:41:26.919Z,5.93
2022-08-30T07:43:54.298Z,6.00
2022-08-30T07:46:21.440Z,5.67
2022-08-30T07:48:48.215Z,5.10
2022-08-30T07:51:18.522Z,5.00
2022-08-30T07:53:45.233Z,5.93
2022-08-30T07:56:12.645Z,5.50
2022-08-30T07:58:39.765Z,4.90
2022-08-30T08:01:08.144Z,5.00
2022-08-30T08:03:35.466Z,5.00
2022-08-30T08:06:06.192Z,5.53
2022-08-30T08:08:33.493Z,5.17
2022-08-30T08:11:08.129Z,4.93
2022-08-30T08:13:45.219Z,5.33
2022-08-30T08:16:23.376Z,5.57
2022-08-30T08:18:50.375Z,5.53
2022-08-30T08:21:17.171Z,5.30
2022-08-30T08:23:44.308Z,5.00
2022-08-30T08:26:11.111Z,5.30
2022-08-30T08:28:37.907Z,5.20
2022-08-30T08:31:06.724Z,5.67
2022-08-30T08:33:33.667Z,5.27
2022-08-30T08:36:00.471Z,5.13
2022-08-30T08:38:27.291Z,5.00
2022-08-30T08:41:03.187Z,4.83
2022-08-30T08:43:34.324Z,4.53
2022-08-30T08:46:06.266Z,4.93
2022-08-30T08:48:58.436Z,4.70
2022-08-30T08:51:49.673Z,4.60
2022-08-30T08:54:45.992Z,5.10
2022-08-30T08:57:16.013Z,4.40
2022-08-30T08:59:45.059Z,4.27
2022-08-30T09:02:29.398Z,5.10
2022-08-30T09:04:58.783Z,4.43
2022-08-30T09:07:29.644Z,4.87
2022-08-30T09:09:58.107Z,4.87
2022-08-30T09:12:24.916Z,4.77
2022-08-30T09:14:55.697Z,4.87
2022-08-30T09:17:23.025Z,4.70
2022-08-30T09:19:52.503Z,4.43
2022-08-30T09:22:39.492Z,4.63
2022-08-30T09:25:08.278Z,4.77
2022-08-30T09:27:46.524Z,4.77
2022-08-30T09:30:23.759Z,5.40
2022-08-30T09:33:03.099Z,4.50
2022-08-30T09:35:48.847Z,4.77
2022-08-30T09:38:33.530Z,4.40
2022-08-30T09:41:02.992Z,4.47
2022-08-30T09:43:34.650Z,4.67
2022-08-30T09:46:02.027Z,4.40
2022-08-30T09:48:40.611Z,4.20
2022-08-30T09:51:10.381Z,4.40
2022-08-30T09:54:19.998Z,4.60
2022-08-30T09:57:04.564Z,4.40
2022-08-30T09:59:39.600Z,5.97
2022-08-30T10:02:36.897Z,4.80
2022-08-30T10:05:22.531Z,4.47
2022-08-30T10:07:55.048Z,4.90
2022-08-30T10:10:53.975Z,4.33
2022-08-30T10:13:39.618Z,4.93
2022-08-30T10:16:21.069Z,4.68
2022-08-30T10:19:10.831Z,4.68
2022-08-30T10:21:44.304Z,4.37
2022-08-30T10:24:19.593Z,4.65
2022-08-30T10:26:59.410Z,4.67
2022-08-30T10:29:32.061Z,5.82
2022-08-30T10:32:13.111Z,4.47
2022-08-30T10:34:45.368Z,4.80
2022-08-30T10:37:17.082Z,4.95
2022-08-30T10:39:49.272Z,5.35
2022-08-30T10:42:21.401Z,4.70
2022-08-30T10:45:05.776Z,4.50
2022-08-30T10:47:54.240Z,4.30
2022-08-30T10:50:25.786Z,4.40
2022-08-30T10:53:03.850Z,4.88
2022-08-30T10:55:34.778Z,4.60
2022-08-30T10:58:05.939Z,8.43
2022-08-30T11:01:00.841Z,4.47
2022-08-30T11:03:48.917Z,4.60
2022-08-30T11:06:37.393Z,4.45
2022-08-30T11:09:17.361Z,4.50
2022-08-30T11:12:18.535Z,4.53
2022-08-30T11:14:46.408Z,4.50
2022-08-30T11:17:31.830Z,4.28
2022-08-30T11:20:01.416Z,4.40
2022-08-30T11:22:39.043Z,5.18
2022-08-30T11:25:11.565Z,4.43
2022-08-30T11:27:43.134Z,4.28
2022-08-30T11:30:26.462Z,4.18
2022-08-30T11:33:02.942Z,4.63
2022-08-30T11:35:48.083Z,4.07
2022-08-30T11:38:27.396Z,4.50
2022-08-30T11:40:58.272Z,4.68
2022-08-30T11:43:39.820Z,4.15
2022-08-30T11:46:15.656Z,4.00
2022-08-30T11:48:55.300Z,4.20
2022-08-30T11:51:41.092Z,4.50
2022-08-30T11:54:28.478Z,3.97
2022-08-30T11:57:21.303Z,4.05
2022-08-30T12:00:08.906Z,4.40
2022-08-30T12:02:51.094Z,3.97
2022-08-30T12:05:38.346Z,3.95
2022-08-30T12:08:09.790Z,4.18
2022-08-30T12:10:48.600Z,3.92
2022-08-30T12:13:51.363Z,3.90
2022-08-30T12:16:59.369Z,4.13
2022-08-30T12:19:27.131Z,4.07
2022-08-30T12:21:58.419Z,4.80
2022-08-30T12:24:43.638Z,4.20
2022-08-30T12:27:32.553Z,4.65
2022-08-30T12:30:02.911Z,3.90
2022-08-30T12:32:31.040Z,4.65
2022-08-30T12:35:07.335Z,3.92
2022-08-30T12:37:36.919Z,3.90
2022-08-30T12:40:18.607Z,4.25
2022-08-30T12:43:04.750Z,3.95
2022-08-30T12:45:41.665Z,4.70
2022-08-30T12:48:15.866Z,4.60
2022-08-30T12:50:55.542Z,4.10
2022-08-30T12:53:38.663Z,4.00
2022-08-30T12:56:15.614Z,3.85
2022-08-30T12:59:00.719Z,4.68
2022-08-30T13:01:37.106Z,4.18
2022-08-30T13:04:26.362Z,4.45
2022-08-30T13:06:57.603Z,4.22
2022-08-30T13:09:33.898Z,4.05
2022-08-30T13:12:06.240Z,3.78
2022-08-30T13:14:43.690Z,4.32
2022-08-30T13:17:25.827Z,4.32
2022-08-30T13:20:01.200Z,4.03
2022-08-30T13:22:31.870Z,4.15
2022-08-30T13:24:59.017Z,3.80
2022-08-30T13:27:27.107Z,3.78
2022-08-30T13:29:54.056Z,3.75
2022-08-30T13:32:21.476Z,4.38
2022-08-30T13:34:48.262Z,3.70
2022-08-30T13:40:13.295Z,3.85
2022-08-30T13:42:43.071Z,4.00
2022-08-30T13:47:58.543Z,3.70
2022-08-30T13:50:25.324Z,4.25
2022-08-30T13:52:52.362Z,3.83
2022-08-30T13:55:19.291Z,4.05
2022-08-30T13:57:55.220Z,4.00
2022-08-30T14:00:23.585Z,4.40
2022-08-30T14:02:54.638Z,3.90
2022-08-30T14:11:05.422Z,3.83
2022-08-30T14:13:32.934Z,3.83
2022-08-30T14:18:48.962Z,4.22
2022-08-30T14:21:16.176Z,3.80
2022-08-30T14:23:43.132Z,4.10
2022-08-30T14:26:17.183Z,3.85
2022-08-30T14:28:44.854Z,3.72
2022-08-30T14:31:12.244Z,4.00
2022-08-30T14:33:40.174Z,4.40
2022-08-30T14:36:12.471Z,4.75
2022-08-30T14:38:42.579Z,4.35
2022-08-30T14:41:10.814Z,4.43
2022-08-30T14:43:40.199Z,4.20
2022-08-30T14:46:08.091Z,4.20
2022-08-30T14:48:36.413Z,5.28
2022-08-30T14:51:03.877Z,4.30
2022-08-30T14:53:30.546Z,4.25
2022-08-30T14:55:57.294Z,4.18
2022-08-30T14:58:23.996Z,4.00
2022-08-30T15:00:52.565Z,4.10
2022-08-30T15:03:19.519Z,4.25
2022-08-30T15:05:53.011Z,3.90
2022-08-30T15:08:20.004Z,4.05
2022-08-30T15:10:47.576Z,4.07
2022-08-30T15:13:14.355Z,3.97
2022-08-30T15:15:42.898Z,4.18
2022-08-30T15:18:09.928Z,3.58
2022-08-30T15:20:36.751Z,4.32
2022-08-30T15:23:04.226Z,4.15
2022-08-30T15:25:31.870Z,3.75
2022-08-30T15:27:58.542Z,3.90
2022-08-30T15:30:25.552Z,3.88
2022-08-30T15:32:52.343Z,4.28
2022-08-30T15:35:19.179Z,4.10
2022-08-30T15:37:45.931Z,3.65
2022-08-30T15:40:12.830Z,4.20
2022-08-30T15:42:39.820Z,3.80
2022-08-30T15:45:09.719Z,3.72
2022-08-30T15:47:36.487Z,3.40
2022-08-30T15:50:05.033Z,4.10
2022-08-30T15:52:32.507Z,4.20
2022-08-30T15:54:59.362Z,3.85
2022-08-30T15:57:26.646Z,4.18
2022-08-30T15:59:54.691Z,4.38
2022-08-30T16:02:22.027Z,3.90
2022-08-30T16:04:54.523Z,4.40
2022-08-30T16:07:21.233Z,4.30
2022-08-30T16:09:47.992Z,4.00
2022-08-30T16:12:22.469Z,4.10
2022-08-30T16:14:51.131Z,4.05
2022-08-30T16:17:18.219Z,4.55
2022-08-30T16:19:45.226Z,3.83
2022-08-30T16:22:12.063Z,4.22
2022-08-30T16:24:38.871Z,4.20
2022-08-30T16:27:06.062Z,4.07
2022-08-30T16:29:35.544Z,4.40
2022-08-30T16:32:02.361Z,4.47
2022-08-30T16:34:29.480Z,4.40
2022-08-30T16:37:00.167Z,4.13
2022-08-30T16:39:26.955Z,4.20
2022-08-30T16:41:53.786Z,4.10
2022-08-30T16:44:20.587Z,4.00
2022-08-30T16:46:52.624Z,4.07
2022-08-30T16:49:22.637Z,3.95
2022-08-30T16:51:50.290Z,4.20
2022-08-30T16:54:17.572Z,3.75
2022-08-30T16:56:45.755Z,4.25
2022-08-30T16:59:13.681Z,4.35
2022-08-30T17:01:42.382Z,3.90
2022-08-30T17:04:09.907Z,4.28
2022-08-30T17:06:36.732Z,4.40
2022-08-30T17:09:05.058Z,4.10
2022-08-30T17:11:32.524Z,4.22
2022-08-30T17:13:59.477Z,4.13
2022-08-30T17:16:29.925Z,4.53
2022-08-30T17:19:00.026Z,4.50
2022-08-30T17:21:29.166Z,4.47
2022-08-30T17:24:01.637Z,4.53
2022-08-30T17:26:43.424Z,4.40
2022-08-30T17:29:10.126Z,4.00
2022-08-30T17:31:41.393Z,4.30
2022-08-30T17:34:08.181Z,3.78
2022-08-30T17:36:38.548Z,4.35
2022-08-30T17:39:10.841Z,4.25
2022-08-30T17:41:39.931Z,3.95
2022-08-30T17:44:12.697Z,4.25
2022-08-30T17:46:39.888Z,4.20
2022-08-30T17:49:10.482Z,4.18
2022-08-30T17:51:40.917Z,4.57
2022-08-30T17:54:09.009Z,3.97
2022-08-30T17:56:35.847Z,4.32
2022-08-30T17:59:05.454Z,3.85
2022-08-30T18:01:32.314Z,3.95
2022-08-30T18:04:02.026Z,4.35
2022-08-30T18:06:33.564Z,4.32
2022-08-30T18:09:01.042Z,4.32
2022-08-30T18:11:27.929Z,4.20
2022-08-30T18:13:54.639Z,4.10
2022-08-30T18:16:26.142Z,3.95
2022-08-30T18:18:57.307Z,4.05
2022-08-30T18:21:24.307Z,4.07
2022-08-30T18:23:52.245Z,4.40
2022-08-30T18:26:19.091Z,4.30
2022-08-30T18:28:50.927Z,4.20
2022-08-30T18:31:17.620Z,3.92
2022-08-30T18:33:44.816Z,4.32
2022-08-30T18:36:11.745Z,4.45
2022-08-30T18:38:39.880Z,4.15
2022-08-30T18:41:13.884Z,4.13
2022-08-30T18:43:41.511Z,4.47
2022-08-30T18:46:13.106Z,4.38
2022-08-30T18:48:41.761Z,4.35
2022-08-30T18:51:26.889Z,4.32
2022-08-30T18:53:55.916Z,4.10
2022-08-30T18:56:22.980Z,4.50
2022-08-30T18:58:54.683Z,4.07
2022-08-30T19:01:23.007Z,4.28
2022-08-30T19:03:50.425Z,4.03
2022-08-30T19:06:19.287Z,4.07
2022-08-30T19:08:45.990Z,4.15
2022-08-30T19:11:12.757Z,3.90
2022-08-30T19:13:39.750Z,4.30
2022-08-30T19:16:07.805Z,3.85
2022-08-30T19:18:39.069Z,3.58
2022-08-30T19:21:06.602Z,4.72
2022-08-30T19:23:40.611Z,3.70
2022-08-30T19:26:07.371Z,3.67
2022-08-30T19:28:37.905Z,3.70
2022-08-30T19:31:06.507Z,3.80
2022-08-30T19:37:30.170Z,3.80
2022-08-30T19:39:56.845Z,4.88
2022-08-30T19:42:27.468Z,3.80
2022-08-30T19:44:54.183Z,4.22
2022-08-30T19:47:21.294Z,3.88
2022-08-30T19:56:44.578Z,3.97
2022-08-30T20:05:38.300Z,4.17
2022-08-30T20:08:15.224Z,4.00
2022-08-30T20:19:36.459Z,4.07
2022-08-30T20:24:57.600Z,4.07
2022-08-30T20:27:24.694Z,3.95
2022-08-30T20:29:52.147Z,4.20
2022-08-30T20:32:18.970Z,4.40
2022-08-30T20:34:49.138Z,4.17
2022-08-30T20:37:16.050Z,3.80
2022-08-30T20:39:42.855Z,4.15
2022-08-30T20:42:09.559Z,4.33
2022-08-30T20:44:37.629Z,4.40
2022-08-30T20:47:05.182Z,4.07
2022-08-30T20:49:32.076Z,4.30
2022-08-30T20:51:58.770Z,4.30
2022-08-30T20:54:25.581Z,4.57
2022-08-30T20:56:52.288Z,4.43
2022-08-30T20:59:19.030Z,4.40
2022-08-30T21:01:47.727Z,4.60
2022-08-30T21:04:14.556Z,4.20
2022-08-30T21:06:41.282Z,4.63
2022-08-30T21:09:08.849Z,4.60
2022-08-30T21:11:36.772Z,4.10
2022-08-30T21:14:04.891Z,4.13
2022-08-30T21:16:31.841Z,4.17
2022-08-30T21:18:58.696Z,4.83
2022-08-30T21:21:26.708Z,4.47
2022-08-30T21:23:57.375Z,3.50
2022-08-30T21:26:24.944Z,4.17
2022-08-30T21:28:53.536Z,4.00
2022-08-30T21:31:22.974Z,3.60
2022-08-30T21:33:51.734Z,4.20
2022-08-30T21:36:37.819Z,4.40
2022-08-30T21:39:06.095Z,4.07
2022-08-30T21:41:34.286Z,4.50
2022-08-30T21:44:04.032Z,3.90
2022-08-30T21:46:32.344Z,3.90
2022-08-30T21:49:01.498Z,4.50
2022-08-30T21:51:29.451Z,4.37
2022-08-30T21:53:57.824Z,4.10
2022-08-30T21:56:24.575Z,4.20
2022-08-30T21:58:51.769Z,4.40
2022-08-30T22:01:24.438Z,3.83
2022-08-30T22:03:52.865Z,3.90
2022-08-30T22:06:19.965Z,4.03
2022-08-30T22:08:49.906Z,4.00
2022-08-30T22:11:21.763Z,4.00
2022-08-30T22:13:49.781Z,4.30
2022-08-30T22:16:17.675Z,4.20
2022-08-30T22:18:44.994Z,3.90
2022-08-30T22:21:15.780Z,4.53
2022-08-30T22:23:43.737Z,3.83
2022-08-30T22:26:11.987Z,3.93
2022-08-30T22:28:39.177Z,4.20
2022-08-30T22:31:08.037Z,4.27
2022-08-30T22:33:35.595Z,4.83
2022-08-30T22:36:15.229Z,4.47
2022-08-30T22:38:42.090Z,3.83
2022-08-30T22:41:17.885Z,4.30
2022-08-30T22:43:44.831Z,4.20
2022-08-30T22:46:12.185Z,4.00
2022-08-30T22:48:42.186Z,3.87
2022-08-30T22:51:09.785Z,4.53
2022-08-30T22:53:36.486Z,4.17
2022-08-30T22:56:14.987Z,4.13
2022-08-30T22:58:42.248Z,4.13
2022-08-30T23:01:10.409Z,3.93
2022-08-30T23:03:37.244Z,4.13
2022-08-30T23:06:04.417Z,4.00
2022-08-30T23:08:32.537Z,3.97
2022-08-30T23:11:01.053Z,3.87
2022-08-30T23:13:27.872Z,4.20
2022-08-30T23:15:54.627Z,3.90
2022-08-30T23:18:21.361Z,3.80
2022-08-30T23:20:48.186Z,3.90
2022-08-30T23:23:33.420Z,4.00
2022-08-30T23:26:19.688Z,4.13
2022-08-30T23:29:05.309Z,3.90
2022-08-30T23:31:50.757Z,3.80
2022-08-30T23:34:36.363Z,3.70
2022-08-30T23:39:58.184Z,3.80
2022-08-30T23:42:43.864Z,3.50
2022-08-30T23:45:29.246Z,4.13
2022-08-30T23:48:14.669Z,3.70
2022-08-30T23:51:01.578Z,3.80
2022-08-30T23:53:47.106Z,3.80
2022-08-30T23:56:32.410Z,3.90
2022-08-30T23:59:17.648Z,3.53
